createdAt,value
2018-04-28T00:00:23.229Z,26.30
2018-04-28T00:01:23.219Z,24.40
2018-04-28T00:02:23.200Z,24.60
2018-04-28T00:03:23.194Z,21.90
2018-04-28T00:04:23.165Z,21.90
2018-04-28T00:05:23.149Z,19.10
2018-04-28T00:06:23.139Z,20.70
2018-04-28T00:07:23.119Z,20.70
2018-04-28T00:08:23.105Z,20.10
2018-04-28T00:09:23.094Z,19.50
2018-04-28T00:10:23.072Z,17.70
2018-04-28T00:11:23.060Z,18.20
2018-04-28T00:12:23.047Z,20.40
2018-04-28T00:13:23.028Z,17.70
2018-04-28T00:14:23.016Z,15.40
2018-04-28T00:15:23.005Z,14.60
2018-04-28T00:16:22.979Z,13.50
2018-04-28T00:17:22.970Z,16.10
2018-04-28T00:18:22.950Z,11.60
2018-04-28T00:19:22.928Z,14.40
2018-04-28T00:20:22.919Z,11.50
2018-04-28T00:21:22.902Z,11.20
2018-04-28T00:22:22.893Z,11.50
2018-04-28T00:23:22.869Z,11.20
2018-04-28T00:24:22.849Z,12.10
2018-04-28T00:25:22.833Z,13.10
2018-04-28T00:26:22.819Z,13.50
2018-04-28T00:27:22.819Z,10.60
2018-04-28T00:28:22.796Z,12.00
2018-04-28T00:29:22.779Z,10.90
2018-04-28T00:30:22.765Z,11.50
2018-04-28T00:31:22.762Z,11.20
2018-04-28T00:32:22.736Z,12.70
2018-04-28T00:33:22.713Z,9.80
2018-04-28T00:34:22.693Z,8.90
2018-04-28T00:35:22.688Z,13.80
2018-04-28T00:36:22.668Z,10.00
2018-04-28T00:37:22.663Z,11.40
2018-04-28T00:38:22.629Z,9.20
2018-04-28T00:39:22.619Z,12.10
2018-04-28T00:40:22.597Z,8.70
2018-04-28T00:41:22.589Z,10.20
2018-04-28T00:42:22.567Z,13.00
2018-04-28T00:43:22.547Z,9.10
2018-04-28T00:44:22.538Z,7.80
2018-04-28T00:45:22.515Z,10.90
2018-04-28T00:46:22.503Z,7.70
2018-04-28T00:47:22.488Z,11.20
2018-04-28T00:48:22.479Z,8.20
2018-04-28T00:49:22.454Z,10.20
2018-04-28T00:50:22.436Z,9.70
2018-04-28T00:51:22.497Z,11.20
2018-04-28T00:52:22.409Z,9.30
2018-04-28T00:53:22.387Z,10.80
2018-04-28T00:54:22.380Z,13.20
2018-04-28T00:55:22.359Z,10.70
2018-04-28T00:56:22.340Z,11.70
2018-04-28T00:57:22.326Z,11.10
2018-04-28T00:58:22.441Z,10.80
2018-04-28T00:59:22.298Z,10.30
2018-04-28T01:00:22.282Z,9.60
2018-04-28T01:01:22.263Z,10.00
2018-04-28T01:02:22.252Z,11.60
2018-04-28T01:03:22.228Z,10.40
2018-04-28T01:04:22.215Z,12.60
2018-04-28T01:05:22.201Z,10.70
2018-04-28T01:06:22.181Z,10.00
2018-04-28T01:07:22.168Z,8.80
2018-04-28T01:08:22.150Z,12.10
2018-04-28T01:09:22.138Z,9.90
2018-04-28T01:10:22.118Z,11.10
2018-04-28T01:11:22.106Z,10.50
2018-04-28T01:12:22.086Z,9.30
2018-04-28T01:13:22.068Z,9.80
2018-04-28T01:14:22.051Z,10.40
2018-04-28T01:15:22.036Z,9.40
2018-04-28T01:16:22.019Z,8.50
2018-04-28T01:17:22.011Z,10.40
2018-04-28T01:18:21.991Z,10.20
2018-04-28T01:19:21.971Z,8.50
2018-04-28T01:20:21.969Z,11.90
2018-04-28T01:21:21.939Z,12.00
2018-04-28T01:22:21.930Z,10.80
2018-04-28T01:23:21.914Z,16.50
2018-04-28T01:24:21.898Z,14.40
2018-04-28T01:25:21.875Z,17.10
2018-04-28T01:26:21.859Z,13.00
2018-04-28T01:27:21.849Z,12.40
2018-04-28T01:28:21.827Z,16.30
2018-04-28T01:29:21.814Z,12.00
2018-04-28T01:30:21.797Z,15.00
2018-04-28T01:31:21.781Z,16.80
2018-04-28T01:32:21.766Z,13.30
2018-04-28T01:33:21.757Z,13.50
2018-04-28T01:34:21.731Z,13.40
2018-04-28T01:35:21.715Z,10.60
2018-04-28T01:36:21.698Z,11.10
2018-04-28T01:37:21.683Z,12.70
2018-04-28T01:38:21.669Z,11.60
2018-04-28T01:39:21.651Z,11.40
2018-04-28T01:40:21.639Z,9.80
2018-04-28T01:41:21.621Z,9.50
2018-04-28T01:42:21.610Z,9.10
2018-04-28T01:43:21.599Z,9.40
2018-04-28T01:44:21.570Z,8.40
2018-04-28T01:45:21.561Z,8.40
2018-04-28T01:46:21.640Z,11.30
2018-04-28T01:47:21.536Z,9.10
2018-04-28T01:48:21.508Z,9.30
2018-04-28T01:49:21.535Z,8.50
2018-04-28T01:50:21.508Z,9.40
2018-04-28T01:51:21.481Z,10.10
2018-04-28T01:52:21.545Z,8.20
2018-04-28T01:53:21.429Z,10.10
2018-04-28T01:54:21.419Z,8.90
2018-04-28T01:55:21.395Z,9.00
2018-04-28T01:56:21.380Z,9.00
2018-04-28T01:57:21.360Z,11.00
2018-04-28T01:58:21.396Z,12.60
2018-04-28T01:59:21.331Z,7.90
2018-04-28T02:00:21.365Z,8.20
2018-04-28T02:01:21.299Z,8.30
2018-04-28T02:02:21.333Z,11.00
2018-04-28T02:03:21.269Z,11.00
2018-04-28T02:04:21.249Z,11.10
2018-04-28T02:05:21.237Z,9.70
2018-04-28T02:06:21.221Z,8.40
2018-04-28T02:07:21.207Z,10.70
2018-04-28T02:08:21.189Z,8.60
2018-04-28T02:09:21.169Z,8.80
2018-04-28T02:10:21.159Z,12.70
2018-04-28T02:11:21.140Z,11.00
2018-04-28T02:12:21.128Z,9.70
2018-04-28T02:13:21.104Z,8.60
2018-04-28T02:14:21.098Z,8.70
2018-04-28T02:15:21.072Z,9.00
2018-04-28T02:16:21.056Z,8.50
2018-04-28T02:17:21.040Z,9.80
2018-04-28T02:18:21.026Z,9.90
2018-04-28T02:19:21.013Z,9.50
2018-04-28T02:20:20.993Z,10.40
2018-04-28T02:21:20.975Z,10.60
2018-04-28T02:22:20.959Z,8.70
2018-04-28T02:23:20.945Z,8.80
2018-04-28T02:24:20.928Z,12.90
2018-04-28T02:25:20.920Z,10.20
2018-04-28T02:26:20.900Z,12.20
2018-04-28T02:27:20.881Z,10.50
2018-04-28T02:28:20.868Z,9.90
2018-04-28T02:29:20.850Z,9.40
2018-04-28T02:30:20.831Z,10.20
2018-04-28T02:31:20.820Z,8.60
2018-04-28T02:32:20.800Z,7.40
2018-04-28T02:33:20.786Z,8.60
2018-04-28T02:34:20.768Z,10.90
2018-04-28T02:35:20.757Z,8.10
2018-04-28T02:36:20.743Z,8.80
2018-04-28T02:37:20.725Z,9.00
2018-04-28T02:38:20.710Z,8.40
2018-04-28T02:39:20.693Z,10.00
2018-04-28T02:40:20.670Z,12.00
2018-04-28T02:41:20.661Z,9.00
2018-04-28T02:42:20.642Z,10.30
2018-04-28T02:43:20.629Z,8.30
2018-04-28T02:44:20.629Z,13.40
2018-04-28T02:45:20.591Z,11.80
2018-04-28T02:46:20.581Z,7.60
2018-04-28T02:47:20.563Z,9.60
2018-04-28T02:48:20.540Z,9.90
2018-04-28T02:49:20.582Z,8.90
2018-04-28T02:50:20.508Z,8.70
2018-04-28T02:51:20.495Z,10.80
2018-04-28T02:52:20.479Z,10.40
2018-04-28T02:53:20.463Z,9.60
2018-04-28T02:54:20.449Z,8.20
2018-04-28T02:55:20.440Z,9.00
2018-04-28T02:56:20.420Z,8.80
2018-04-28T02:57:20.399Z,7.50
2018-04-28T02:58:20.380Z,9.10
2018-04-28T02:59:20.371Z,9.40
2018-04-28T03:00:20.348Z,9.20
2018-04-28T03:01:20.349Z,7.40
2018-04-28T03:02:20.323Z,6.90
2018-04-28T03:03:20.300Z,10.80
2018-04-28T03:04:20.285Z,11.50
2018-04-28T03:05:20.270Z,10.60
2018-04-28T03:06:20.253Z,7.70
2018-04-28T03:07:20.253Z,9.60
2018-04-28T03:08:20.220Z,9.50
2018-04-28T03:09:20.206Z,10.30
2018-04-28T03:10:20.187Z,9.00
2018-04-28T03:11:20.170Z,8.70
2018-04-28T03:12:20.158Z,9.10
2018-04-28T03:13:20.139Z,7.20
2018-04-28T03:14:20.124Z,8.00
2018-04-28T03:15:20.110Z,8.70
2018-04-28T03:16:20.093Z,8.60
2018-04-28T03:17:20.077Z,12.40
2018-04-28T03:18:20.061Z,9.10
2018-04-28T03:19:20.045Z,7.70
2018-04-28T03:20:20.035Z,6.90
2018-04-28T03:21:20.021Z,10.00
2018-04-28T03:22:20.000Z,8.20
2018-04-28T03:23:19.978Z,10.60
2018-04-28T03:24:20.034Z,9.70
2018-04-28T03:25:19.952Z,7.50
2018-04-28T03:26:19.930Z,8.70
2018-04-28T03:27:19.919Z,9.40
2018-04-28T03:28:19.899Z,8.70
2018-04-28T03:29:19.886Z,10.10
2018-04-28T03:30:19.869Z,9.80
2018-04-28T03:31:19.850Z,9.90
2018-04-28T03:32:19.834Z,8.30
2018-04-28T03:33:19.827Z,10.00
2018-04-28T03:34:19.810Z,9.50
2018-04-28T03:35:19.791Z,9.20
2018-04-28T03:36:19.773Z,13.40
2018-04-28T03:37:19.880Z,10.00
2018-04-28T03:38:19.738Z,8.70
2018-04-28T03:39:19.726Z,7.40
2018-04-28T03:40:19.710Z,9.00
2018-04-28T03:41:19.697Z,9.90
2018-04-28T03:42:19.681Z,13.40
2018-04-28T03:43:19.667Z,12.60
2018-04-28T03:44:19.648Z,11.10
2018-04-28T03:45:19.630Z,12.30
2018-04-28T03:46:19.610Z,10.90
2018-04-28T03:47:19.597Z,11.30
2018-04-28T03:48:19.581Z,11.00
2018-04-28T03:49:19.580Z,9.60
2018-04-28T03:50:19.560Z,10.60
2018-04-28T03:51:19.539Z,9.20
2018-04-28T03:52:19.521Z,11.60
2018-04-28T03:53:19.650Z,11.10
2018-04-28T03:54:19.502Z,9.70
2018-04-28T03:55:19.467Z,7.30
2018-04-28T03:56:19.450Z,10.80
2018-04-28T03:57:19.492Z,8.40
2018-04-28T03:58:19.424Z,9.00
2018-04-28T03:59:19.510Z,9.70
2018-04-28T04:00:19.386Z,8.70
2018-04-28T04:01:19.470Z,9.50
2018-04-28T04:02:19.361Z,11.40
2018-04-28T04:03:19.444Z,8.30
2018-04-28T04:04:19.327Z,9.50
2018-04-28T04:05:19.360Z,11.30
2018-04-28T04:06:19.289Z,10.40
2018-04-28T04:07:19.284Z,10.20
2018-04-28T04:08:19.259Z,12.30
2018-04-28T04:09:19.240Z,11.70
2018-04-28T04:10:19.229Z,10.60
2018-04-28T04:11:19.220Z,9.60
2018-04-28T04:12:19.198Z,12.70
2018-04-28T04:13:19.179Z,10.70
2018-04-28T04:14:19.168Z,7.40
2018-04-28T04:15:19.149Z,9.20
2018-04-28T04:16:19.128Z,9.20
2018-04-28T04:17:19.120Z,10.00
2018-04-28T04:18:19.172Z,9.90
2018-04-28T04:19:19.080Z,13.00
2018-04-28T04:20:19.069Z,9.80
2018-04-28T04:21:19.053Z,13.00
2018-04-28T04:22:19.039Z,8.90
2018-04-28T04:23:19.018Z,9.30
2018-04-28T04:24:19.004Z,11.70
2018-04-28T04:25:18.986Z,10.10
2018-04-28T04:26:18.971Z,10.20
2018-04-28T04:27:18.956Z,8.70
2018-04-28T04:28:18.940Z,10.20
2018-04-28T04:29:18.919Z,11.20
2018-04-28T04:30:18.908Z,8.90
2018-04-28T04:31:18.888Z,11.20
2018-04-28T04:32:18.885Z,7.70
2018-04-28T04:33:18.858Z,9.90
2018-04-28T04:34:18.845Z,10.70
2018-04-28T04:35:18.828Z,8.70
2018-04-28T04:36:18.808Z,6.40
2018-04-28T04:37:18.794Z,9.40
2018-04-28T04:38:18.793Z,7.20
2018-04-28T04:39:18.760Z,9.20
2018-04-28T04:40:18.748Z,9.10
2018-04-28T04:41:18.730Z,9.10
2018-04-28T04:42:18.719Z,7.60
2018-04-28T04:43:18.708Z,7.20
2018-04-28T04:44:18.689Z,8.80
2018-04-28T04:45:18.668Z,9.40
2018-04-28T04:46:18.649Z,8.10
2018-04-28T04:47:18.645Z,7.40
2018-04-28T04:48:18.619Z,9.40
2018-04-28T04:49:18.604Z,8.60
2018-04-28T04:50:18.588Z,9.50
2018-04-28T04:51:18.569Z,7.60
2018-04-28T04:52:18.561Z,9.00
2018-04-28T04:53:18.537Z,8.30
2018-04-28T04:54:18.521Z,10.00
2018-04-28T04:55:18.510Z,11.30
2018-04-28T04:56:18.492Z,9.20
2018-04-28T04:57:18.488Z,9.60
2018-04-28T04:58:18.459Z,8.90
2018-04-28T04:59:18.450Z,7.10
2018-04-28T05:00:18.430Z,8.10
2018-04-28T05:01:18.418Z,7.00
2018-04-28T05:02:18.396Z,8.40
2018-04-28T05:03:18.378Z,10.90
2018-04-28T05:04:18.363Z,9.40
2018-04-28T05:05:18.350Z,10.60
2018-04-28T05:06:18.331Z,8.30
2018-04-28T05:07:18.320Z,9.70
2018-04-28T05:08:18.300Z,7.40
2018-04-28T05:09:18.291Z,8.70
2018-04-28T05:10:18.269Z,7.80
2018-04-28T05:11:18.254Z,7.20
2018-04-28T05:12:18.241Z,10.60
2018-04-28T05:13:18.220Z,9.90
2018-04-28T05:14:18.206Z,8.80
2018-04-28T05:15:18.191Z,9.60
2018-04-28T05:16:18.180Z,8.50
2018-04-28T05:17:18.159Z,10.30
2018-04-28T05:18:18.143Z,8.20
2018-04-28T05:19:18.130Z,10.50
2018-04-28T05:20:18.109Z,7.30
2018-04-28T05:21:18.099Z,8.20
2018-04-28T05:22:18.079Z,10.00
2018-04-28T05:23:18.068Z,8.90
2018-04-28T05:24:18.049Z,8.90
2018-04-28T05:25:18.048Z,11.00
2018-04-28T05:26:18.021Z,7.70
2018-04-28T05:27:18.004Z,7.80
2018-04-28T05:28:18.005Z,8.10
2018-04-28T05:29:17.971Z,8.50
2018-04-28T05:30:17.967Z,8.90
2018-04-28T05:31:17.939Z,11.80
2018-04-28T05:32:17.929Z,9.80
2018-04-28T05:33:17.909Z,13.00
2018-04-28T05:34:17.898Z,9.90
2018-04-28T05:35:17.879Z,10.00
2018-04-28T05:36:17.871Z,7.50
2018-04-28T05:37:17.849Z,8.70
2018-04-28T05:38:17.833Z,10.20
2018-04-28T05:39:17.819Z,9.80
2018-04-28T05:40:17.815Z,8.70
2018-04-28T05:41:17.789Z,9.20
2018-04-28T05:42:17.780Z,10.30
2018-04-28T05:43:17.760Z,10.10
2018-04-28T05:44:17.749Z,9.20
2018-04-28T05:45:17.733Z,6.30
2018-04-28T05:46:17.720Z,7.70
2018-04-28T05:47:17.699Z,10.90
2018-04-28T05:48:17.745Z,10.30
2018-04-28T05:49:17.670Z,12.60
2018-04-28T05:50:17.654Z,12.00
2018-04-28T05:51:17.641Z,9.30
2018-04-28T05:52:17.625Z,9.60
2018-04-28T05:53:17.609Z,10.60
2018-04-28T05:54:17.593Z,9.40
2018-04-28T05:55:17.583Z,13.50
2018-04-28T05:56:17.567Z,10.10
2018-04-28T05:57:17.548Z,8.30
2018-04-28T05:58:17.535Z,12.20
2018-04-28T05:59:17.519Z,8.60
2018-04-28T06:00:17.509Z,10.60
2018-04-28T06:01:17.490Z,11.30
2018-04-28T06:02:17.488Z,12.40
2018-04-28T06:03:17.518Z,11.60
2018-04-28T06:04:17.451Z,8.90
2018-04-28T06:05:17.430Z,13.00
2018-04-28T06:06:17.417Z,9.60
2018-04-28T06:07:17.409Z,10.90
2018-04-28T06:08:17.392Z,10.80
2018-04-28T06:09:17.385Z,11.10
2018-04-28T06:10:17.364Z,11.20
2018-04-28T06:11:17.350Z,11.10
2018-04-28T06:12:17.333Z,10.60
2018-04-28T06:13:17.321Z,10.90
2018-04-28T06:14:17.315Z,9.90
2018-04-28T06:15:17.296Z,10.60
2018-04-28T06:16:17.286Z,12.70
2018-04-28T06:17:17.261Z,8.30
2018-04-28T06:18:17.252Z,7.50
2018-04-28T06:19:17.231Z,12.40
2018-04-28T06:20:17.251Z,11.00
2018-04-28T06:21:17.212Z,8.10
2018-04-28T06:22:17.191Z,11.80
2018-04-28T06:23:17.181Z,13.10
2018-04-28T06:24:17.160Z,9.20
2018-04-28T06:25:17.150Z,8.80
2018-04-28T06:26:17.140Z,11.80
2018-04-28T06:27:17.144Z,10.80
2018-04-28T06:28:17.109Z,8.40
2018-04-28T06:29:17.092Z,11.10
2018-04-28T06:30:17.085Z,13.90
2018-04-28T06:31:17.060Z,11.40
2018-04-28T06:32:17.103Z,7.70
2018-04-28T06:33:17.039Z,10.80
2018-04-28T06:34:17.022Z,10.20
2018-04-28T06:35:17.019Z,10.20
2018-04-28T06:36:17.045Z,11.30
2018-04-28T06:37:16.983Z,9.30
2018-04-28T06:38:16.974Z,12.10
2018-04-28T06:39:16.965Z,8.30
2018-04-28T06:40:16.943Z,10.20
2018-04-28T06:41:16.992Z,8.60
2018-04-28T06:42:16.911Z,9.80
2018-04-28T06:43:16.899Z,10.30
2018-04-28T06:44:16.884Z,13.30
2018-04-28T06:45:16.868Z,11.30
2018-04-28T06:46:16.860Z,10.40
2018-04-28T06:47:16.845Z,11.90
2018-04-28T06:48:16.831Z,9.50
2018-04-28T06:49:16.816Z,10.10
2018-04-28T06:50:16.799Z,10.00
2018-04-28T06:51:16.796Z,8.10
2018-04-28T06:52:16.774Z,10.40
2018-04-28T06:53:16.761Z,8.20
2018-04-28T06:54:16.747Z,10.10
2018-04-28T06:55:16.733Z,8.70
2018-04-28T06:56:16.721Z,11.20
2018-04-28T06:57:16.706Z,12.10
2018-04-28T06:58:16.695Z,10.70
2018-04-28T06:59:16.681Z,12.30
2018-04-28T07:00:16.682Z,9.60
2018-04-28T07:01:16.658Z,12.50
2018-04-28T07:02:16.641Z,12.90
2018-04-28T07:03:16.631Z,14.10
2018-04-28T07:04:16.619Z,10.80
2018-04-28T07:05:16.603Z,11.90
2018-04-28T07:06:16.591Z,10.90
2018-04-28T07:07:16.589Z,10.80
2018-04-28T07:08:16.572Z,9.80
2018-04-28T07:09:16.550Z,10.60
2018-04-28T07:10:16.539Z,12.50
2018-04-28T07:11:16.531Z,10.40
2018-04-28T07:12:16.516Z,9.90
2018-04-28T07:13:16.500Z,8.70
2018-04-28T07:14:16.488Z,8.90
2018-04-28T07:15:16.477Z,10.80
2018-04-28T07:16:16.471Z,10.20
2018-04-28T07:17:16.452Z,9.20
2018-04-28T07:18:16.445Z,13.80
2018-04-28T07:19:16.437Z,11.70
2018-04-28T07:20:16.421Z,9.10
2018-04-28T07:21:16.413Z,10.00
2018-04-28T07:22:16.400Z,12.20
2018-04-28T07:23:16.398Z,11.20
2018-04-28T07:24:16.376Z,11.90
2018-04-28T07:25:16.421Z,10.60
2018-04-28T07:26:16.360Z,10.70
2018-04-28T07:27:16.347Z,10.80
2018-04-28T07:28:16.339Z,11.10
2018-04-28T07:29:16.407Z,10.70
2018-04-28T07:30:16.308Z,9.90
2018-04-28T07:31:16.296Z,9.20
2018-04-28T07:32:16.282Z,9.80
2018-04-28T07:33:16.274Z,10.60
2018-04-28T07:34:16.259Z,14.40
2018-04-28T07:35:16.319Z,13.80
2018-04-28T07:36:16.242Z,17.20
2018-04-28T07:37:16.228Z,10.40
2018-04-28T07:38:16.220Z,15.20
2018-04-28T07:39:16.210Z,17.40
2018-04-28T07:40:16.205Z,11.90
2018-04-28T07:41:16.191Z,11.90
2018-04-28T07:42:16.209Z,11.50
2018-04-28T07:43:16.180Z,9.70
2018-04-28T07:44:16.174Z,11.40
2018-04-28T07:45:16.164Z,10.40
2018-04-28T07:46:16.158Z,11.00
2018-04-28T07:47:16.150Z,11.60
2018-04-28T07:48:16.148Z,9.60
2018-04-28T07:49:16.143Z,10.10
2018-04-28T07:50:16.134Z,10.00
2018-04-28T07:51:16.128Z,10.10
2018-04-28T07:52:16.119Z,11.30
2018-04-28T07:53:16.122Z,12.80
2018-04-28T07:54:16.107Z,10.70
2018-04-28T07:55:16.100Z,9.80
2018-04-28T07:56:16.097Z,9.70
2018-04-28T07:57:16.088Z,11.70
2018-04-28T07:58:16.080Z,9.80
2018-04-28T07:59:16.071Z,10.70
2018-04-28T08:00:16.138Z,13.20
2018-04-28T08:01:16.064Z,9.50
2018-04-28T08:02:16.049Z,11.20
2018-04-28T08:03:16.056Z,9.80
2018-04-28T08:04:16.039Z,11.90
2018-04-28T08:05:16.044Z,8.90
2018-04-28T08:06:16.027Z,8.30
2018-04-28T08:07:16.019Z,12.30
2018-04-28T08:08:16.013Z,8.70
2018-04-28T08:09:16.004Z,12.90
2018-04-28T08:10:16.001Z,8.90
2018-04-28T08:11:15.986Z,7.10
2018-04-28T08:12:15.980Z,13.50
2018-04-28T08:13:15.971Z,12.20
2018-04-28T08:14:15.965Z,6.30
2018-04-28T08:15:16.014Z,11.00
2018-04-28T08:16:15.953Z,9.30
2018-04-28T08:17:15.941Z,12.20
2018-04-28T08:18:15.930Z,12.40
2018-04-28T08:19:15.922Z,8.90
2018-04-28T08:20:15.907Z,12.30
2018-04-28T08:21:15.900Z,13.00
2018-04-28T08:22:15.891Z,15.70
2018-04-28T08:23:15.881Z,11.80
2018-04-28T08:24:15.872Z,9.30
2018-04-28T08:25:15.853Z,10.90
2018-04-28T08:26:15.847Z,9.60
2018-04-28T08:27:15.834Z,11.00
2018-04-28T08:28:15.830Z,13.20
2018-04-28T08:29:15.815Z,9.90
2018-04-28T08:30:15.802Z,9.70
2018-04-28T08:31:15.791Z,13.30
2018-04-28T08:32:15.830Z,12.80
2018-04-28T08:33:15.774Z,12.40
2018-04-28T08:34:15.755Z,14.60
2018-04-28T08:35:15.748Z,8.20
2018-04-28T08:36:15.732Z,13.60
2018-04-28T08:37:15.811Z,13.20
2018-04-28T08:38:15.709Z,12.70
2018-04-28T08:39:15.711Z,12.00
2018-04-28T08:40:15.685Z,10.80
2018-04-28T08:41:15.670Z,13.20
2018-04-28T08:42:15.656Z,11.10
2018-04-28T08:43:15.648Z,11.20
2018-04-28T08:44:15.690Z,14.50
2018-04-28T08:45:15.670Z,12.60
2018-04-28T08:46:15.610Z,10.70
2018-04-28T08:47:15.595Z,11.90
2018-04-28T08:48:15.594Z,9.50
2018-04-28T08:49:15.568Z,10.90
2018-04-28T08:50:15.561Z,10.50
2018-04-28T08:51:15.553Z,8.00
2018-04-28T08:52:15.609Z,10.00
2018-04-28T08:53:15.520Z,12.80
2018-04-28T08:54:15.510Z,11.00
2018-04-28T08:55:15.497Z,8.30
2018-04-28T08:56:15.488Z,13.30
2018-04-28T08:57:15.475Z,9.30
2018-04-28T08:58:15.459Z,8.60
2018-04-28T08:59:15.496Z,14.30
2018-04-28T09:00:15.439Z,10.90
2018-04-28T09:01:15.436Z,8.90
2018-04-28T09:02:15.409Z,11.10
2018-04-28T09:03:15.397Z,10.90
2018-04-28T09:04:15.389Z,13.50
2018-04-28T09:05:15.377Z,12.60
2018-04-28T09:06:15.368Z,9.10
2018-04-28T09:07:15.363Z,11.50
2018-04-28T09:08:15.348Z,12.40
2018-04-28T09:09:15.341Z,11.60
2018-04-28T09:10:15.342Z,12.00
2018-04-28T09:11:15.312Z,8.70
2018-04-28T09:12:15.303Z,8.60
2018-04-28T09:13:15.386Z,7.40
2018-04-28T09:14:15.271Z,9.10
2018-04-28T09:15:15.322Z,9.30
2018-04-28T09:16:15.254Z,10.90
2018-04-28T09:17:15.249Z,9.70
2018-04-28T09:18:15.235Z,10.80
2018-04-28T09:19:15.342Z,8.90
2018-04-28T09:20:15.222Z,8.50
2018-04-28T09:21:15.314Z,8.40
2018-04-28T09:22:15.198Z,7.10
2018-04-28T09:23:15.204Z,9.10
2018-04-28T09:24:15.190Z,9.90
2018-04-28T09:25:15.177Z,7.50
2018-04-28T09:26:15.183Z,9.50
2018-04-28T09:27:15.160Z,8.60
2018-04-28T09:28:15.159Z,9.90
2018-04-28T09:29:15.147Z,9.70
2018-04-28T09:30:15.140Z,10.80
2018-04-28T09:31:15.138Z,9.50
2018-04-28T09:32:15.129Z,9.80
2018-04-28T09:33:15.135Z,7.00
2018-04-28T09:34:15.111Z,9.10
2018-04-28T09:35:15.112Z,5.90
2018-04-28T09:36:15.148Z,8.90
2018-04-28T09:37:15.093Z,8.00
2018-04-28T09:38:15.085Z,8.80
2018-04-28T09:39:15.083Z,9.50
2018-04-28T09:40:15.072Z,7.30
2018-04-28T09:41:15.079Z,8.90
2018-04-28T09:42:15.062Z,6.80
2018-04-28T09:43:15.062Z,6.90
2018-04-28T09:44:15.045Z,13.10
2018-04-28T09:45:15.033Z,8.70
2018-04-28T09:46:15.023Z,8.40
2018-04-28T09:47:15.018Z,7.90
2018-04-28T09:48:15.013Z,7.10
2018-04-28T09:49:14.996Z,8.00
2018-04-28T09:50:14.988Z,9.30
2018-04-28T09:51:14.985Z,12.60
2018-04-28T09:52:14.979Z,9.90
2018-04-28T09:53:14.965Z,8.30
2018-04-28T09:54:14.960Z,7.40
2018-04-28T09:55:14.959Z,9.00
2018-04-28T09:56:14.940Z,6.30
2018-04-28T09:57:14.933Z,6.60
2018-04-28T09:58:14.925Z,9.00
2018-04-28T09:59:14.922Z,7.40
2018-04-28T10:00:14.919Z,8.60
2018-04-28T10:01:14.903Z,9.20
2018-04-28T10:02:14.890Z,6.70
2018-04-28T10:03:14.877Z,9.00
2018-04-28T10:04:14.871Z,8.00
2018-04-28T10:05:14.871Z,10.60
2018-04-28T10:06:14.852Z,6.30
2018-04-28T10:07:14.854Z,9.50
2018-04-28T10:08:14.829Z,8.20
2018-04-28T10:09:14.823Z,9.50
2018-04-28T10:10:14.832Z,8.10
2018-04-28T10:11:14.802Z,7.60
2018-04-28T10:12:14.790Z,7.80
2018-04-28T10:13:14.795Z,10.60
2018-04-28T10:14:14.770Z,6.30
2018-04-28T10:15:14.762Z,7.60
2018-04-28T10:16:14.761Z,7.60
2018-04-28T10:17:14.739Z,7.70
2018-04-28T10:18:14.782Z,8.20
2018-04-28T10:19:14.719Z,7.40
2018-04-28T10:20:14.815Z,7.30
2018-04-28T10:21:14.702Z,8.70
2018-04-28T10:22:14.685Z,10.10
2018-04-28T10:23:14.683Z,9.40
2018-04-28T10:24:14.689Z,7.90
2018-04-28T10:25:14.653Z,7.40
2018-04-28T10:26:14.663Z,7.90
2018-04-28T10:27:14.640Z,9.90
2018-04-28T10:28:14.621Z,9.10
2018-04-28T10:29:14.615Z,11.60
2018-04-28T10:30:14.602Z,8.80
2018-04-28T10:31:14.592Z,9.60
2018-04-28T10:32:14.586Z,6.00
2018-04-28T10:33:14.584Z,7.10
2018-04-28T10:34:14.562Z,6.30
2018-04-28T10:35:14.554Z,7.10
2018-04-28T10:36:14.537Z,8.00
2018-04-28T10:37:14.523Z,9.30
2018-04-28T10:38:14.525Z,9.40
2018-04-28T10:39:14.502Z,7.70
2018-04-28T10:40:14.492Z,7.90
2018-04-28T10:41:14.490Z,7.40
2018-04-28T10:42:14.474Z,11.40
2018-04-28T10:43:14.471Z,7.90
2018-04-28T10:44:14.449Z,8.20
2018-04-28T10:45:14.440Z,8.90
2018-04-28T10:46:14.432Z,9.20
2018-04-28T10:47:14.410Z,8.90
2018-04-28T10:48:14.410Z,11.40
2018-04-28T10:49:14.393Z,8.70
2018-04-28T10:50:14.379Z,7.70
2018-04-28T10:51:14.380Z,7.60
2018-04-28T10:52:14.357Z,7.50
2018-04-28T10:53:14.355Z,6.00
2018-04-28T10:54:14.332Z,7.10
2018-04-28T10:55:14.413Z,7.40
2018-04-28T10:56:14.311Z,9.40
2018-04-28T10:57:14.297Z,7.60
2018-04-28T10:58:14.287Z,11.70
2018-04-28T10:59:14.431Z,6.90
2018-04-28T11:00:14.271Z,8.20
2018-04-28T11:01:14.311Z,7.40
2018-04-28T11:02:14.241Z,10.50
2018-04-28T11:03:14.242Z,8.70
2018-04-28T11:04:14.221Z,9.40
2018-04-28T11:05:14.205Z,7.80
2018-04-28T11:06:14.271Z,10.40
2018-04-28T11:07:14.187Z,9.10
2018-04-28T11:08:14.171Z,7.20
2018-04-28T11:09:14.212Z,7.10
2018-04-28T11:10:14.149Z,6.40
2018-04-28T11:11:14.141Z,8.00
2018-04-28T11:12:14.127Z,6.50
2018-04-28T11:13:14.176Z,9.30
2018-04-28T11:14:14.102Z,7.40
2018-04-28T11:15:14.091Z,8.90
2018-04-28T11:16:14.083Z,5.50
2018-04-28T11:17:14.069Z,9.50
2018-04-28T11:18:14.062Z,11.30
2018-04-28T11:19:14.049Z,8.70
2018-04-28T11:20:14.038Z,5.30
2018-04-28T11:21:14.030Z,7.60
2018-04-28T11:22:14.012Z,8.20
2018-04-28T11:23:14.002Z,6.70
2018-04-28T11:24:14.000Z,6.50
2018-04-28T11:25:13.984Z,10.00
2018-04-28T11:26:13.967Z,9.50
2018-04-28T11:27:13.961Z,10.90
2018-04-28T11:28:13.946Z,8.50
2018-04-28T11:29:13.933Z,8.80
2018-04-28T11:30:13.919Z,7.40
2018-04-28T11:31:13.912Z,7.40
2018-04-28T11:32:13.906Z,8.20
2018-04-28T11:33:13.893Z,8.10
2018-04-28T11:34:13.880Z,8.10
2018-04-28T11:35:13.860Z,7.90
2018-04-28T11:36:13.848Z,7.00
2018-04-28T11:37:13.849Z,8.20
2018-04-28T11:38:13.920Z,7.30
2018-04-28T11:39:13.819Z,7.20
2018-04-28T11:40:13.807Z,9.90
2018-04-28T11:41:13.790Z,8.00
2018-04-28T11:42:13.781Z,10.30
2018-04-28T11:43:13.774Z,10.60
2018-04-28T11:44:13.773Z,6.70
2018-04-28T11:45:13.748Z,7.20
2018-04-28T11:46:13.740Z,8.40
2018-04-28T11:47:13.724Z,7.40
2018-04-28T11:48:13.715Z,6.80
2018-04-28T11:49:13.711Z,6.80
2018-04-28T11:50:13.700Z,8.80
2018-04-28T11:51:13.681Z,8.00
2018-04-28T11:52:13.665Z,6.90
2018-04-28T11:53:13.740Z,7.60
2018-04-28T11:54:13.649Z,8.50
2018-04-28T11:55:13.644Z,8.60
2018-04-28T11:56:13.620Z,8.10
2018-04-28T11:57:13.615Z,7.70
2018-04-28T11:58:13.605Z,5.90
2018-04-28T11:59:13.603Z,8.40
2018-04-28T12:00:13.580Z,8.80
2018-04-28T12:01:13.568Z,10.70
2018-04-28T12:02:13.560Z,8.90
2018-04-28T12:03:13.551Z,8.60
2018-04-28T12:04:13.541Z,6.80
2018-04-28T12:05:13.567Z,9.20
2018-04-28T12:06:13.509Z,8.20
2018-04-28T12:07:13.550Z,8.00
2018-04-28T12:08:13.499Z,5.90
2018-04-28T12:09:13.480Z,10.20
2018-04-28T12:10:13.467Z,10.00
2018-04-28T12:11:13.460Z,9.40
2018-04-28T12:12:13.444Z,9.40
2018-04-28T12:13:13.433Z,9.20
2018-04-28T12:14:13.423Z,9.20
2018-04-28T12:15:13.424Z,9.60
2018-04-28T12:16:13.411Z,9.40
2018-04-28T12:17:13.388Z,7.10
2018-04-28T12:18:13.374Z,6.20
2018-04-28T12:19:13.362Z,11.30
2018-04-28T12:20:13.357Z,7.00
2018-04-28T12:21:13.340Z,8.30
2018-04-28T12:22:13.330Z,6.60
2018-04-28T12:23:13.317Z,8.90
2018-04-28T12:24:13.310Z,9.20
2018-04-28T12:25:13.298Z,7.40
2018-04-28T12:26:13.284Z,7.00
2018-04-28T12:27:13.281Z,7.70
2018-04-28T12:28:13.260Z,7.60
2018-04-28T12:29:13.250Z,9.70
2018-04-28T12:30:13.240Z,8.90
2018-04-28T12:31:13.226Z,9.00
2018-04-28T12:32:13.223Z,8.10
2018-04-28T12:33:13.203Z,8.40
2018-04-28T12:34:13.192Z,10.70
2018-04-28T12:35:13.180Z,9.20
2018-04-28T12:36:13.169Z,9.60
2018-04-28T12:37:13.161Z,7.60
2018-04-28T12:38:13.149Z,8.70
2018-04-28T12:39:13.140Z,8.20
2018-04-28T12:40:13.142Z,7.80
2018-04-28T12:41:13.124Z,9.00
2018-04-28T12:42:13.110Z,8.00
2018-04-28T12:43:13.098Z,8.20
2018-04-28T12:44:13.091Z,6.90
2018-04-28T12:45:13.089Z,7.30
2018-04-28T12:46:13.077Z,10.80
2018-04-28T12:47:13.061Z,9.30
2018-04-28T12:48:13.046Z,7.20
2018-04-28T12:49:13.039Z,10.50
2018-04-28T12:50:13.027Z,8.30
2018-04-28T12:51:13.013Z,7.40
2018-04-28T12:52:13.001Z,7.80
2018-04-28T12:53:13.001Z,7.30
2018-04-28T12:54:12.983Z,5.40
2018-04-28T12:55:13.001Z,9.40
2018-04-28T12:56:12.960Z,7.80
2018-04-28T12:57:13.047Z,8.30
2018-04-28T12:58:12.939Z,6.70
2018-04-28T12:59:12.929Z,6.80
2018-04-28T13:00:12.918Z,6.10
2018-04-28T13:01:12.911Z,8.80
2018-04-28T13:02:12.903Z,7.80
2018-04-28T13:03:12.930Z,8.50
2018-04-28T13:04:12.880Z,7.30
2018-04-28T13:05:12.918Z,6.70
2018-04-28T13:06:12.942Z,8.50
2018-04-28T13:07:12.858Z,5.90